OCN2KY EDDM-LGSK
Flight info
| Callsign | OCN2KY |
|---|---|
| Flight time | N/A |
| Altitude | 37000 |
| Route | KIRDI2E/08R KIRDI DCT MEDEL DCT GUBOK DCT MITNO DCT MEDUX UM867 KOGAT DCT ERANA UL737 TSL UL617 IBIDI |
| Aircraft | A320/M-SDE3FGHIRWY/LB1 |
Departure
| Time | N/A |
|---|---|
| Airport | Munich Airport (EDDM) |
Arrival
| Time | 2026-04-09 12:47 |
|---|---|
| Airport | Skiathos Island National Airport (LGSK) |
| Time | Latitude | Longitude | Altitude | Speed | Heading |
|---|---|---|---|---|---|
| 2026-04-09 12:01 | 42.96564 | 19.85848 | 37094 ft | 512 kts | 153° |
| 2026-04-09 12:01 | 42.93443 | 19.88193 | 37086 ft | 512 kts | 153° |
| 2026-04-09 12:01 | 42.87203 | 19.92879 | 37081 ft | 512 kts | 153° |
| 2026-04-09 12:02 | 42.80951 | 19.97554 | 37071 ft | 512 kts | 153° |
| 2026-04-09 12:02 | 42.74956 | 20.02772 | 37065 ft | 513 kts | 139° |
| 2026-04-09 12:03 | 42.70119 | 20.09845 | 37068 ft | 511 kts | 127° |
| 2026-04-09 12:03 | 42.65615 | 20.17323 | 37082 ft | 512 kts | 128° |
| 2026-04-09 12:04 | 42.61081 | 20.24757 | 37064 ft | 511 kts | 128° |
| 2026-04-09 12:04 | 42.56554 | 20.32179 | 37046 ft | 511 kts | 128° |
| 2026-04-09 12:05 | 42.52018 | 20.39621 | 37074 ft | 512 kts | 128° |
| 2026-04-09 12:05 | 42.47470 | 20.47039 | 37082 ft | 512 kts | 128° |
| 2026-04-09 12:06 | 42.42921 | 20.54455 | 37091 ft | 512 kts | 128° |
| 2026-04-09 12:06 | 42.38361 | 20.61870 | 37075 ft | 513 kts | 128° |
| 2026-04-09 12:07 | 42.33788 | 20.69280 | 37069 ft | 513 kts | 129° |
| 2026-04-09 12:07 | 42.29215 | 20.76687 | 37056 ft | 513 kts | 128° |
| 2026-04-09 12:08 | 42.24636 | 20.84092 | 37068 ft | 514 kts | 129° |
| 2026-04-09 12:08 | 42.20044 | 20.91480 | 37063 ft | 513 kts | 129° |
| 2026-04-09 12:09 | 42.15446 | 20.98842 | 37068 ft | 514 kts | 129° |
| 2026-04-09 12:09 | 42.10793 | 21.06127 | 37049 ft | 513 kts | 134° |
| 2026-04-09 12:10 | 42.05620 | 21.12753 | 37054 ft | 514 kts | 137° |
| 2026-04-09 12:10 | 42.00413 | 21.19333 | 37043 ft | 513 kts | 137° |
| 2026-04-09 12:11 | 41.95212 | 21.25906 | 37042 ft | 514 kts | 137° |
| 2026-04-09 12:11 | 41.90049 | 21.32430 | 37038 ft | 513 kts | 137° |
| 2026-04-09 12:12 | 41.84849 | 21.38994 | 37035 ft | 513 kts | 137° |
| 2026-04-09 12:12 | 41.79644 | 21.45540 | 37039 ft | 513 kts | 137° |
| 2026-04-09 12:13 | 41.74438 | 21.52074 | 37008 ft | 513 kts | 137° |
| 2026-04-09 12:13 | 41.69223 | 21.58591 | 37032 ft | 513 kts | 137° |
| 2026-04-09 12:14 | 41.64012 | 21.65096 | 37031 ft | 512 kts | 137° |
| 2026-04-09 12:14 | 41.58809 | 21.71585 | 37033 ft | 512 kts | 137° |
| 2026-04-09 12:15 | 41.53598 | 21.78067 | 37035 ft | 512 kts | 138° |
| 2026-04-09 12:15 | 41.48384 | 21.84529 | 37043 ft | 512 kts | 138° |
| 2026-04-09 12:16 | 41.43124 | 21.90941 | 37025 ft | 512 kts | 144° |
| 2026-04-09 12:16 | 41.37122 | 21.95932 | 37022 ft | 509 kts | 152° |
| 2026-04-09 12:17 | 41.31061 | 22.00693 | 37023 ft | 509 kts | 152° |
| 2026-04-09 12:17 | 41.24949 | 22.05473 | 37004 ft | 510 kts | 152° |
| 2026-04-09 12:18 | 41.18832 | 22.10240 | 37009 ft | 510 kts | 152° |
| 2026-04-09 12:18 | 41.12705 | 22.15008 | 37026 ft | 510 kts | 152° |
| 2026-04-09 12:19 | 41.06583 | 22.19770 | 37019 ft | 510 kts | 152° |
| 2026-04-09 12:19 | 41.00454 | 22.24526 | 36994 ft | 510 kts | 152° |
| 2026-04-09 12:20 | 40.94337 | 22.29263 | 37007 ft | 509 kts | 153° |
| 2026-04-09 12:20 | 40.88232 | 22.33990 | 37014 ft | 508 kts | 153° |
| 2026-04-09 12:21 | 40.82122 | 22.38703 | 37014 ft | 508 kts | 152° |
| 2026-04-09 12:21 | 40.76013 | 22.43402 | 36992 ft | 508 kts | 152° |
| 2026-04-09 12:22 | 40.72955 | 22.45749 | 36822 ft | 508 kts | 152° |
| 2026-04-09 12:22 | 40.69902 | 22.48094 | 36346 ft | 510 kts | 153° |
| 2026-04-09 12:22 | 40.66808 | 22.50466 | 35331 ft | 518 kts | 153° |
| 2026-04-09 12:22 | 40.63678 | 22.52861 | 34361 ft | 525 kts | 152° |
| 2026-04-09 12:23 | 40.60569 | 22.55238 | 33722 ft | 523 kts | 152° |
| 2026-04-09 12:23 | 40.57384 | 22.57671 | 33026 ft | 520 kts | 152° |
| 2026-04-09 12:23 | 40.54265 | 22.60052 | 32352 ft | 517 kts | 152° |
| 2026-04-09 12:23 | 40.51202 | 22.62392 | 31692 ft | 514 kts | 152° |
| 2026-04-09 12:24 | 40.48117 | 22.64747 | 31029 ft | 512 kts | 152° |
| 2026-04-09 12:24 | 40.45045 | 22.67083 | 30380 ft | 509 kts | 152° |
| 2026-04-09 12:24 | 40.41987 | 22.69404 | 29676 ft | 507 kts | 152° |
| 2026-04-09 12:24 | 40.38950 | 22.71708 | 29046 ft | 502 kts | 152° |
| 2026-04-09 12:25 | 40.35944 | 22.73989 | 28424 ft | 497 kts | 152° |
| 2026-04-09 12:25 | 40.32964 | 22.76250 | 27815 ft | 493 kts | 152° |
| 2026-04-09 12:25 | 40.30009 | 22.78493 | 27174 ft | 489 kts | 152° |
| 2026-04-09 12:25 | 40.27089 | 22.80707 | 26697 ft | 482 kts | 152° |
| 2026-04-09 12:26 | 40.24195 | 22.82895 | 26108 ft | 478 kts | 152° |
| 2026-04-09 12:26 | 40.21328 | 22.85056 | 25505 ft | 475 kts | 152° |
| 2026-04-09 12:26 | 40.18481 | 22.87199 | 24980 ft | 470 kts | 152° |
| 2026-04-09 12:26 | 40.15655 | 22.89323 | 24446 ft | 465 kts | 152° |
| 2026-04-09 12:27 | 40.12852 | 22.91424 | 23865 ft | 463 kts | 152° |
| 2026-04-09 12:27 | 40.10076 | 22.93508 | 23213 ft | 461 kts | 152° |
| 2026-04-09 12:27 | 40.07321 | 22.95578 | 22750 ft | 452 kts | 152° |
| 2026-04-09 12:27 | 40.04621 | 22.97609 | 21950 ft | 443 kts | 152° |
| 2026-04-09 12:28 | 40.01978 | 22.99594 | 21425 ft | 436 kts | 152° |
| 2026-04-09 12:28 | 39.99353 | 23.01563 | 20866 ft | 435 kts | 152° |
| 2026-04-09 12:28 | 39.96736 | 23.03522 | 20297 ft | 433 kts | 152° |
| 2026-04-09 12:28 | 39.94123 | 23.05475 | 19759 ft | 432 kts | 152° |
| 2026-04-09 12:29 | 39.91531 | 23.07409 | 19225 ft | 430 kts | 152° |
| 2026-04-09 12:29 | 39.88956 | 23.09326 | 18814 ft | 421 kts | 152° |
| 2026-04-09 12:29 | 39.86432 | 23.11207 | 18055 ft | 415 kts | 152° |
| 2026-04-09 12:29 | 39.83964 | 23.13045 | 17524 ft | 402 kts | 152° |
| 2026-04-09 12:30 | 39.81556 | 23.14837 | 17003 ft | 398 kts | 152° |
| 2026-04-09 12:30 | 39.79162 | 23.16616 | 16523 ft | 396 kts | 151° |
| 2026-04-09 12:30 | 39.76773 | 23.18392 | 16026 ft | 395 kts | 151° |
| 2026-04-09 12:30 | 39.74389 | 23.20161 | 15532 ft | 394 kts | 151° |
| 2026-04-09 12:31 | 39.72817 | 23.21327 | 15205 ft | 393 kts | 151° |
| 2026-04-09 12:31 | 39.70445 | 23.23086 | 14706 ft | 392 kts | 151° |
| 2026-04-09 12:31 | 39.68078 | 23.24842 | 14225 ft | 391 kts | 151° |
| 2026-04-09 12:31 | 39.65735 | 23.26581 | 13739 ft | 385 kts | 151° |
| 2026-04-09 12:32 | 39.63444 | 23.28280 | 13188 ft | 371 kts | 151° |
| 2026-04-09 12:32 | 39.61245 | 23.29905 | 12724 ft | 357 kts | 151° |
| 2026-04-09 12:32 | 39.59098 | 23.31488 | 12262 ft | 355 kts | 151° |
| 2026-04-09 12:32 | 39.56987 | 23.33043 | 12001 ft | 339 kts | 151° |
| 2026-04-09 12:33 | 39.54992 | 23.34516 | 11820 ft | 322 kts | 151° |
| 2026-04-09 12:33 | 39.53065 | 23.35940 | 11498 ft | 316 kts | 152° |
| 2026-04-09 12:33 | 39.51164 | 23.37337 | 11237 ft | 312 kts | 152° |
| 2026-04-09 12:33 | 39.49282 | 23.38719 | 10946 ft | 310 kts | 152° |
| 2026-04-09 12:34 | 39.47418 | 23.40093 | 10649 ft | 307 kts | 152° |
| 2026-04-09 12:34 | 39.45572 | 23.41454 | 10355 ft | 304 kts | 152° |
| 2026-04-09 12:34 | 39.43738 | 23.42804 | 10064 ft | 302 kts | 152° |
| 2026-04-09 12:34 | 39.41925 | 23.44137 | 9769 ft | 299 kts | 152° |
| 2026-04-09 12:35 | 39.40126 | 23.45461 | 9425 ft | 296 kts | 152° |
| 2026-04-09 12:35 | 39.38340 | 23.46773 | 9073 ft | 294 kts | 152° |
| 2026-04-09 12:35 | 39.36566 | 23.48073 | 8706 ft | 292 kts | 153° |
| 2026-04-09 12:35 | 39.34803 | 23.49362 | 8342 ft | 290 kts | 153° |
| 2026-04-09 12:36 | 39.33056 | 23.50641 | 7975 ft | 288 kts | 153° |
| 2026-04-09 12:36 | 39.31327 | 23.51906 | 7792 ft | 284 kts | 153° |
| 2026-04-09 12:36 | 39.29618 | 23.53154 | 7461 ft | 281 kts | 153° |
| 2026-04-09 12:36 | 39.27924 | 23.54386 | 7105 ft | 278 kts | 153° |
| 2026-04-09 12:37 | 39.26267 | 23.55591 | 6750 ft | 268 kts | 153° |
| 2026-04-09 12:37 | 39.24677 | 23.56752 | 6414 ft | 258 kts | 153° |
| 2026-04-09 12:37 | 39.23139 | 23.57879 | 6066 ft | 250 kts | 153° |
| 2026-04-09 12:37 | 39.21649 | 23.58972 | 5744 ft | 243 kts | 153° |
| 2026-04-09 12:38 | 39.20162 | 23.59930 | 5430 ft | 235 kts | 163° |
| 2026-04-09 12:38 | 39.18599 | 23.60402 | 5123 ft | 228 kts | 177° |
| 2026-04-09 12:38 | 39.17026 | 23.60403 | 4630 ft | 222 kts | 191° |
| 2026-04-09 12:38 | 39.15587 | 23.59876 | 4170 ft | 211 kts | 208° |
| 2026-04-09 12:39 | 39.14278 | 23.59150 | 3856 ft | 196 kts | 210° |
| 2026-04-09 12:39 | 39.13129 | 23.58400 | 3740 ft | 177 kts | 212° |
| 2026-04-09 12:39 | 39.11995 | 23.57762 | 3468 ft | 178 kts | 204° |
| 2026-04-09 12:39 | 39.10912 | 23.57053 | 3180 ft | 172 kts | 212° |
| 2026-04-09 12:40 | 39.09896 | 23.56330 | 2999 ft | 158 kts | 208° |
| 2026-04-09 12:40 | 39.08953 | 23.55697 | 2818 ft | 153 kts | 208° |
| 2026-04-09 12:40 | 39.08006 | 23.55023 | 2533 ft | 158 kts | 210° |
| 2026-04-09 12:41 | 39.06112 | 23.53725 | 2094 ft | 151 kts | 207° |
| 2026-04-09 12:41 | 39.05183 | 23.53131 | 2094 ft | 148 kts | 205° |
| 2026-04-09 12:41 | 39.04253 | 23.52561 | 2087 ft | 150 kts | 206° |
| 2026-04-09 12:41 | 39.03315 | 23.51972 | 2129 ft | 150 kts | 206° |
| 2026-04-09 12:42 | 39.02518 | 23.51120 | 2077 ft | 151 kts | 241° |
| 2026-04-09 12:42 | 39.02348 | 23.49842 | 1929 ft | 146 kts | 288° |
| 2026-04-09 12:42 | 39.02930 | 23.48855 | 1803 ft | 139 kts | 334° |
| 2026-04-09 12:42 | 39.03816 | 23.48503 | 1727 ft | 130 kts | 349° |
| 2026-04-09 12:43 | 39.04693 | 23.48259 | 1616 ft | 129 kts | 351° |
| 2026-04-09 12:43 | 39.05571 | 23.48060 | 1493 ft | 130 kts | 358° |
| 2026-04-09 12:43 | 39.06465 | 23.47993 | 1479 ft | 128 kts | 360° |
| 2026-04-09 12:43 | 39.07350 | 23.47940 | 1495 ft | 129 kts | 358° |
| 2026-04-09 12:44 | 39.08259 | 23.47898 | 1534 ft | 132 kts | 1° |
| 2026-04-09 12:44 | 39.09167 | 23.48026 | 1554 ft | 130 kts | 9° |
| 2026-04-09 12:44 | 39.10054 | 23.48223 | 1481 ft | 131 kts | 10° |
| 2026-04-09 12:44 | 39.10979 | 23.48385 | 1317 ft | 136 kts | 8° |
| 2026-04-09 12:45 | 39.11916 | 23.48537 | 1112 ft | 134 kts | 8° |
| 2026-04-09 12:45 | 39.12815 | 23.48715 | 899 ft | 129 kts | 12° |
| 2026-04-09 12:45 | 39.13674 | 23.48955 | 713 ft | 121 kts | 11° |
| 2026-04-09 12:45 | 39.14486 | 23.49179 | 564 ft | 122 kts | 10° |
| 2026-04-09 12:46 | 39.15340 | 23.49387 | 432 ft | 130 kts | 13° |
| 2026-04-09 12:46 | 39.16232 | 23.49710 | 213 ft | 135 kts | 16° |
| 2026-04-09 12:46 | 39.17096 | 23.50087 | 42 ft | 125 kts | 14° |
| 2026-04-09 12:46 | 39.17762 | 23.50378 | 41 ft | 62 kts | 19° |
| 2026-04-09 12:47 | 39.17915 | 23.50429 | 42 ft | 7 kts | 324° |
| 2026-04-09 12:47 | 39.17921 | 23.50368 | 40 ft | 7 kts | 243° |
| 2026-04-09 12:47 | 39.17895 | 23.50323 | 43 ft | 5 kts | 217° |
| 2026-04-09 12:47 | 39.17869 | 23.50308 | 42 ft | 1 kts | 200° |
| 2026-04-09 12:48 | 39.17868 | 23.50308 | 42 ft | 1 kts | 200° |
| 2026-04-09 12:48 | 39.17863 | 23.50305 | 42 ft | 1 kts | 200° |
| 2026-04-09 12:49 | 39.17859 | 23.50292 | 41 ft | 3 kts | 257° |
| 2026-04-09 12:49 | 39.17862 | 23.50277 | 44 ft | 1 kts | 289° |
| 2026-04-09 12:49 | 39.17867 | 23.50257 | 46 ft | 0 kts | 288° |
| 2026-04-09 12:49 | 39.17868 | 23.50256 | 46 ft | 1 kts | 288° |
| 2026-04-09 12:50 | 39.17869 | 23.50250 | 46 ft | 1 kts | 288° |
| 2026-04-09 12:50 | 39.17873 | 23.50236 | 48 ft | 2 kts | 289° |
| 2026-04-09 12:50 | 39.17876 | 23.50223 | 50 ft | 1 kts | 289° |
| 2026-04-09 12:50 | 39.17878 | 23.50215 | 51 ft | 0 kts | 289° |
| 2026-04-09 12:51 | 39.17880 | 23.50210 | 52 ft | 1 kts | 289° |
| 2026-04-09 12:51 | 39.17880 | 23.50208 | 52 ft | 0 kts | 289° |
| 2026-04-09 12:51 | 39.17881 | 23.50206 | 52 ft | 0 kts | 289° |